Latest Weather Observations for Coonabarabran Airport

IDN60801

Issued at 10:05 am EST Thursday 21 August 2014 (issued every 30 minutes, with the page automatically refreshed every 10 minutes)

About weather observations | Map of weather stations | Latest weather observations for NSW | Other Formats
Station Details ID: 064017 Name: COONABARABRAN AIRPORT AWS Lat: -31.33 Lon: 149.27 Height: 645.0 m
Data from the previous 72 hours. | See also: Recent months for locations in New South Wales
Date/Time
EST
Temp
°C
App
Temp
°C
Dew
Point
Rel
Hum
%
Delta-T
°C
Wind Press
QNH
hPa
Press
MSL
hPa
Rain
since 9 am
mm
Dir
 
Spd
km/h
Gust
km/h
Spd
kts
Gust
kts
21/10:00am 11.3 6.2 5.8 69 2.6 E 22 28 12 15 1026.5 1026.3 0.0
21/09:30am 10.4 6.2 5.6 72 2.3 ESE 17 28 9 15 1026.6 - 0.0
21/09:00am 9.1 5.5 5.1 76 1.9 SE 13 20 7 11 1026.6 1026.4 0.0
21/08:30am 8.1 4.9 4.9 80 1.5 S 11 15 6 8 1026.4 - 0.0
21/08:00am 7.0 3.7 4.5 84 1.1 S 11 13 6 7 1026.2 1026.0 0.0
21/07:30am 5.9 2.4 3.7 86 1.0 SSW 11 13 6 7 1025.9 - 0.0
21/07:00am 5.3 1.8 3.3 87 0.9 S 11 13 6 7 1025.6 1025.4 0.0
21/06:30am 5.3 1.8 3.5 88 0.8 S 11 13 6 7 1025.2 - 0.0
21/06:00am 5.3 1.8 3.5 88 0.8 S 11 15 6 8 1025.1 1024.9 0.0
21/05:30am 5.1 1.5 3.1 87 0.9 SE 11 13 6 7 1024.9 - 0.0
21/05:00am 5.6 2.5 3.6 87 0.9 SSE 9 13 5 7 1024.9 1024.7 0.0
21/04:30am 5.5 2.0 3.5 87 0.9 SE 11 15 6 8 1024.7 - 0.0
21/04:00am 5.8 2.4 3.8 87 0.9 SE 11 17 6 9 1024.5 1024.2 0.0
21/03:30am 5.2 1.6 3.1 86 0.9 SSE 11 17 6 9 1024.5 - 0.0
21/03:00am 5.2 1.6 2.9 85 1.0 SSE 11 15 6 8 1024.4 1024.1 0.0
21/02:30am 5.6 2.0 2.9 83 1.2 SSE 11 15 6 8 1024.4 - 0.0
21/02:00am 6.3 2.4 3.3 81 1.3 SE 13 17 7 9 1024.6 1024.3 0.0
21/01:30am 6.4 2.1 3.0 79 1.5 SE 15 20 8 11 1024.7 - 0.0
21/01:00am 6.4 2.1 3.0 79 1.5 SE 15 17 8 9 1024.9 1024.7 0.0
21/12:30am 6.3 2.6 2.6 77 1.6 SE 11 15 6 8 1024.9 - 0.0
21/12:00am 7.1 2.7 2.8 74 1.9 ESE 15 20 8 11 1024.9 1024.7 0.0
 
Date/Time
EST
Temp
°C
App
Temp
°C
Dew
Point
Rel
Hum
%
Delta-T
°C
Wind Press
QNH
hPa
Press
MSL
hPa
Rain
since 9 am
mm
Dir
 
Spd
km/h
Gust
km/h
Spd
kts
Gust
kts
20/11:30pm 7.3 3.0 3.2 75 1.8 ESE 15 20 8 11 1024.9 - 0.0
20/11:00pm 7.5 2.5 3.6 76 1.7 ESE 19 26 10 14 1025.0 1024.8 0.0
20/10:30pm 8.1 3.1 3.8 74 1.9 ESE 19 24 10 13 1025.0 - 0.0
20/10:00pm 8.1 3.1 3.6 73 2.0 ESE 19 22 10 12 1025.0 1024.8 0.0
20/09:30pm 8.4 3.7 3.3 70 2.3 ESE 17 22 9 12 1025.0 - 0.0
20/09:00pm 8.9 4.2 3.1 67 2.6 ESE 17 24 9 13 1024.8 1024.6 0.0
20/08:30pm 8.6 3.9 3.2 69 2.4 ESE 17 24 9 13 1024.7 - 0.0
20/08:00pm 9.2 4.5 3.2 66 2.7 SE 17 22 9 12 1024.4 1024.1 0.0
20/07:30pm 9.8 5.1 3.1 63 3.0 ESE 17 22 9 12 1024.2 - 0.0
20/07:00pm 10.2 5.1 3.3 62 3.1 SE 19 24 10 13 1023.8 1023.6 0.0
20/06:30pm 10.7 5.5 3.3 60 3.4 SE 20 26 11 14 1023.4 - 0.0
20/06:00pm 10.6 5.6 3.4 61 3.3 SE 19 24 10 13 1023.0 1022.7 0.0
20/05:30pm 11.4 6.3 3.2 57 3.7 SSE 19 24 10 13 1022.8 - 0.0
20/05:00pm 12.8 7.5 3.2 52 4.4 SSE 20 28 11 15 1022.2 1022.0 0.0
20/04:30pm 13.7 8.5 3.5 50 4.8 SSE 20 32 11 17 1021.9 - 0.0
20/04:00pm 14.3 9.2 3.2 47 5.2 SSE 19 26 10 14 1021.8 1021.5 0.0
20/03:30pm 14.6 10.3 3.1 46 5.4 S 15 20 8 11 1021.9 - 0.0
20/03:00pm 14.8 10.6 3.6 47 5.3 S 15 20 8 11 1021.8 1021.5 0.0
20/02:30pm 14.4 11.4 4.1 50 4.9 SSE 9 20 5 11 1021.9 - 0.0
20/02:00pm 14.2 11.2 4.2 51 4.7 SSW 9 15 5 8 1022.0 1021.7 0.0
20/01:30pm 14.1 11.5 4.1 51 4.7 N 7 13 4 7 1022.3 - 0.0
20/01:00pm 13.6 10.5 5.7 59 3.9 SW 11 15 6 8 1022.6 1022.3 0.0
20/12:30pm 13.2 10.6 6.1 62 3.5 E 9 13 5 7 1023.1 - 0.0
20/12:00pm 12.3 9.8 4.5 59 3.7 SE 7 15 4 8 1023.6 1023.4 0.0
20/11:30am 11.9 8.7 5.3 64 3.2 ENE 11 20 6 11 1024.0 - 0.0
20/11:00am 11.9 9.3 6.0 67 2.9 SSE 9 15 5 8 1024.3 1024.0 0.0
20/10:30am 10.7 8.4 4.6 66 2.9 E 6 15 3 8 1024.4 - 0.0
20/10:00am 9.6 6.2 4.2 69 2.5 S 11 15 6 8 1024.3 1024.0 0.0
20/09:30am 9.1 5.9 4.9 75 2.0 SSE 11 17 6 9 1023.9 - 0.0
20/09:00am 8.2 4.6 5.0 80 1.5 S 13 17 7 9 1023.7 1023.5 4.8
20/08:30am 7.3 3.6 4.6 83 1.2 S 13 17 7 9 1023.6 - 4.8
20/08:00am 6.6 2.9 4.6 87 0.9 S 13 17 7 9 1023.5 1023.3 4.8
20/07:30am 6.1 3.2 4.7 91 0.6 S 9 17 5 9 1023.1 - 4.8
20/07:00am 4.9 1.9 4.2 95 0.3 SSW 9 15 5 8 1022.8 1022.5 4.8
20/06:30am 4.6 0.8 4.0 96 0.3 S 13 17 7 9 1022.3 - 4.8
20/06:00am 4.8 0.7 4.4 97 0.2 S 15 17 8 9 1022.1 1021.9 4.8
20/05:30am 5.1 1.1 4.8 98 0.1 S 15 17 8 9 1021.9 - 4.8
20/05:00am 5.1 1.5 4.8 98 0.1 S 13 15 7 8 1021.7 1021.4 4.8
20/04:30am 5.7 2.2 5.6 99 0.0 S 13 15 7 8 1021.5 - 4.8
20/04:00am 5.5 2.0 5.4 99 0.0 S 13 13 7 7 1021.3 1021.0 4.6
20/03:30am 6.1 3.1 6.0 99 0.0 S 11 13 6 7 1021.1 - 4.6
20/03:00am 6.1 3.1 6.0 99 0.0 S 11 11 6 6 1021.1 1020.8 4.6
20/02:30am 6.2 2.8 6.1 99 0.0 SSE 13 13 7 7 1021.0 - 4.6
20/02:00am 6.1 3.1 6.0 99 0.0 SSE 11 13 6 7 1021.1 1020.8 4.6
20/01:30am 6.5 3.6 6.4 99 0.0 S 11 15 6 8 1021.1 - 4.6
20/01:00am 6.9 4.1 6.8 99 0.0 S 11 15 6 8 1021.0 1020.7 4.6
20/12:30am 7.3 4.6 7.2 99 0.0 S 11 17 6 9 1021.1 - 4.6
20/12:00am 7.6 4.9 7.2 97 0.2 SSE 11 13 6 7 1021.0 1020.7 4.6
 
Date/Time
EST
Temp
°C
App
Temp
°C
Dew
Point
Rel
Hum
%
Delta-T
°C
Wind Press
QNH
hPa
Press
MSL
hPa
Rain
since 9 am
mm
Dir
 
Spd
km/h
Gust
km/h
Spd
kts
Gust
kts
19/11:30pm 8.1 5.0 7.3 95 0.4 S 13 15 7 8 1020.8 - 4.6
19/11:00pm 8.9 6.4 8.0 94 0.4 S 11 13 6 7 1020.8 1020.5 4.6
19/10:30pm 8.9 6.3 7.8 93 0.5 SSW 11 13 6 7 1020.8 - 4.6
19/10:00pm 8.7 6.0 7.5 92 0.6 SSW 11 15 6 8 1020.9 1020.6 4.6
19/09:30pm 8.9 6.2 7.5 91 0.7 S 11 13 6 7 1020.8 - 4.6
19/09:00pm 9.6 6.6 7.9 89 0.8 S 13 15 7 8 1020.6 1020.3 4.6
19/08:30pm 9.9 6.9 7.7 86 1.1 SSW 13 19 7 10 1020.5 - 4.6
19/08:00pm 10.2 6.4 7.6 84 1.3 SSW 17 24 9 13 1020.2 1019.9 4.6
19/07:30pm 9.9 6.2 8.0 88 1.0 SW 17 30 9 16 1019.9 - 4.6
19/07:00pm 9.7 6.7 7.6 87 1.0 W 13 17 7 9 1019.6 1019.3 4.6
19/06:30pm 9.5 7.1 7.1 85 1.2 W 9 13 5 7 1019.3 - 4.6
19/06:00pm 10.2 7.6 7.6 84 1.3 SW 11 17 6 9 1018.6 1018.3 4.6
19/05:30pm 10.8 8.0 6.9 77 1.9 SW 11 15 6 8 1018.4 - 4.6
19/05:00pm 11.8 9.0 7.1 73 2.3 SSW 11 17 6 9 1018.1 1017.8 4.6
19/04:30pm 12.9 9.9 7.8 71 2.6 SSW 13 15 7 8 1017.9 - 4.6
19/04:00pm 12.8 10.7 8.3 74 2.3 SSW 9 11 5 6 1017.7 1017.3 4.6
19/03:30pm 12.9 10.2 9.0 77 2.0 SW 13 15 7 8 1017.7 - 4.6
19/03:00pm 12.5 8.6 8.6 77 2.0 S 19 24 10 13 1017.5 1017.1 4.6
19/02:30pm 12.5 9.3 9.9 84 1.4 SSW 17 24 9 13 1017.2 - 4.6
19/02:00pm 11.1 7.5 9.7 91 0.7 S 19 26 10 14 1017.1 1016.8 4.6
19/01:30pm 10.7 8.6 9.8 94 0.5 WSW 11 13 6 7 1017.0 - 4.2
19/01:00pm 10.2 8.2 10.0 99 0.1 SW 11 15 6 8 1016.9 1016.6 4.2
19/12:30pm 9.3 6.3 9.2 99 0.1 SSW 15 20 8 11 1017.1 - 4.2
19/12:00pm 8.9 5.4 8.8 99 0.1 SSW 17 24 9 13 1017.5 1017.1 4.2
19/11:30am 8.8 4.9 8.8 100 0.0 SSW 19 24 10 13 1017.8 - 4.0
19/11:00am 8.4 4.4 8.4 100 0.0 SW 19 24 10 13 1017.8 1017.4 3.8
19/10:30am 7.8 4.1 7.8 100 0.0 SW 17 20 9 11 1017.9 - 3.6
19/10:00am 7.5 4.1 7.5 100 0.0 SSW 15 20 8 11 1017.7 1017.3 3.0
19/09:30am 7.3 3.8 7.3 100 0.0 SSW 15 20 8 11 1017.7 - 1.8
19/09:00am 7.2 3.7 7.2 100 0.0 SSW 15 20 8 11 1017.3 1017.0 6.0
19/08:30am 7.1 3.2 7.1 100 0.0 SSW 17 20 9 11 1017.0 - 2.8
19/08:00am 7.2 2.7 7.1 99 0.0 SSW 20 26 11 14 1016.7 1016.3 0.4
19/07:30am 7.4 3.2 7.3 99 0.0 SSW 19 26 10 14 1016.3 - 0.2
19/07:00am 7.3 3.0 7.2 99 0.0 SSW 19 30 10 16 1016.0 1015.6 0.2
19/06:30am 7.1 3.2 7.0 99 0.0 SSW 17 22 9 12 1015.4 - 0.2
19/06:00am 7.2 2.9 7.1 99 0.0 SW 19 26 10 14 1015.1 1014.7 0.2
19/05:30am 7.2 2.9 7.1 99 0.0 SSW 19 26 10 14 1014.8 - 0.2
19/05:00am 7.4 3.2 7.3 99 0.0 SSW 19 24 10 13 1014.5 1014.1 0.2
19/04:30am 7.6 3.4 7.5 99 0.0 SSW 19 30 10 16 1014.3 - 0.2
19/04:00am 7.9 3.2 7.6 98 0.1 SW 22 32 12 17 1013.9 1013.5 0.2
19/03:30am 8.2 4.1 7.8 97 0.2 SSW 19 30 10 16 1014.2 - 0.2
19/03:00am 8.4 3.3 7.8 96 0.3 SW 24 33 13 18 1014.0 1013.7 0.2
19/02:30am 8.3 3.2 7.5 95 0.4 SSW 24 37 13 20 1013.9 - 0.2
19/02:00am 8.5 3.8 7.6 94 0.4 SSW 22 32 12 17 1014.0 1013.7 0.2
19/01:30am 8.6 3.5 7.8 95 0.4 SW 24 33 13 18 1014.3 - 0.2
19/01:00am 8.9 3.9 8.1 95 0.4 SW 24 35 13 19 1014.4 1014.0 0.2
19/12:30am 9.0 4.0 7.9 93 0.5 SW 24 37 13 20 1014.4 - 0.2
19/12:00am 9.3 4.3 8.1 92 0.6 SW 24 35 13 19 1014.4 1014.0 0.2
 
Date/Time
EST
Temp
°C
App
Temp
°C
Dew
Point
Rel
Hum
%
Delta-T
°C
Wind Press
QNH
hPa
Press
MSL
hPa
Rain
since 9 am
mm
Dir
 
Spd
km/h
Gust
km/h
Spd
kts
Gust
kts
18/11:30pm 9.2 4.2 8.1 93 0.5 SW 24 35 13 19 1014.4 - 0.2
18/11:00pm 9.7 4.3 7.8 88 0.9 SW 26 39 14 21 1014.2 1013.8 0.2
18/10:39pm 9.8 4.0 7.9 88 0.9 SW 28 46 15 25 1014.3 - 0.2
18/10:30pm 9.8 3.6 7.9 88 0.9 SW 30 39 16 21 1014.3 - 0.2
18/10:00pm 9.9 4.0 7.5 85 1.2 SW 28 43 15 23 1014.2 1013.8 0.2
18/09:30pm 10.2 4.3 7.3 82 1.4 SW 28 37 15 20 1014.0 - 0.2
18/09:00pm 10.4 4.1 7.3 81 1.5 SW 30 44 16 24 1013.9 1013.5 0.2
18/08:30pm 10.7 4.7 7.0 78 1.8 SW 28 39 15 21 1013.8 - 0.2
18/08:00pm 10.8 4.4 7.1 78 1.8 SW 30 41 16 22 1013.5 1013.1 0.2
18/07:30pm 10.8 5.7 7.5 80 1.6 SW 24 37 13 20 1013.2 - 0.2
18/07:00pm 10.6 5.8 7.3 80 1.6 SW 22 35 12 19 1012.6 1012.1 0.2
18/06:30pm 10.7 4.8 7.4 80 1.6 SW 28 37 15 20 1012.3 - 0.2
18/06:00pm 10.6 5.8 7.5 81 1.5 SW 22 32 12 17 1012.0 1011.6 0.2
18/05:30pm 10.8 5.3 7.5 80 1.6 SW 26 35 14 19 1011.7 - 0.0
18/05:00pm 10.8 4.9 7.5 80 1.6 SW 28 39 15 21 1011.3 1010.8 0.0
18/04:30pm 11.3 6.7 8.2 81 1.6 SW 22 33 12 18 1011.1 - 0.0
18/04:00pm 11.0 6.4 8.0 82 1.5 WSW 22 32 12 17 1010.7 1010.3 0.0
18/03:30pm 10.5 5.9 8.1 85 1.2 WSW 22 33 12 18 1010.3 - 0.0
18/03:00pm 10.4 5.4 8.0 85 1.2 WSW 24 39 13 21 1010.0 1009.5 0.0
18/02:30pm 10.4 5.0 8.2 86 1.1 SW 26 35 14 19 1009.8 - 0.0
18/02:00pm 10.3 5.0 8.4 88 1.0 SW 26 35 14 19 1009.5 1009.0 0.0
18/01:30pm 10.2 5.8 9.0 92 0.6 WSW 22 30 12 16 1009.4 - 0.0
18/01:00pm 9.3 4.4 8.5 95 0.4 WSW 24 41 13 22 1009.5 1009.0 0.0
18/12:30pm 8.7 3.0 8.3 97 0.2 SW 28 39 15 21 1009.6 - 0.0
18/12:00pm 8.5 3.2 8.4 99 0.1 SW 26 35 14 19 1009.7 1009.2 0.0
18/11:30am 7.9 2.5 7.9 100 0.0 SW 26 37 14 20 1009.6 - 0.0
18/11:00am 7.8 1.6 7.8 100 0.0 SW 30 48 16 26 1009.5 1009.0 0.0
18/10:53am 7.8 1.9 7.7 99 0.0 WSW 28 48 15 26 1009.5 - 0.0
18/10:30am 8.2 2.4 8.1 99 0.0 WSW 28 39 15 21 1009.1 - 0.0

Other Formats:

Comma delimited format used in spreadsheet applications
http://www.bom.gov.au/fwo/IDN60801/IDN60801.95728.axf

JavaScript Object Notation format (JSON) in row-major order
http://www.bom.gov.au/fwo/IDN60801/IDN60801.95728.json